Umeoh Maru — JD3736 — position and weather

sailwx.info

Track history (hours):
 
Tides and Currents Weather Stations Pressure Air Temp Water Temp Dewpoint Dewpoint Depression Visibility Wind Speed Wind Dir Waves Ship Positions

Umeoh Maru

Last reported at 2018-Jan-19 15:01 UTC. Time now 2018-Jan-19 15:23 UTC.
Position N 35°34' E 140°04'.

Length 73 m; draft 4.6 m.

Type: Tanker. MMSI: 431005826.

Date/timePositionNaut miles runAvg speedWind from/ knotsBaromVisibWave heightAir tempDewpointWater temp
2018-Jan-19 15:01N 35°34' E 140°04'0 0.0
2018-Jan-19 14:30N 35°34' E 140°04'0 0.0
2018-Jan-19 14:01N 35°34' E 140°04'0 0.0
2018-Jan-19 13:31N 35°34' E 140°04'0 0.0
2018-Jan-19 13:00N 35°34' E 140°04'0 0.0
2018-Jan-19 12:30N 35°34' E 140°04'1 2.3
2018-Jan-19 12:01N 35°34' E 140°03'612.2
2018-Jan-19 11:31N 35°31' E 139°56'612.0
2018-Jan-19 11:00N 35°30' E 139°49'3 5.6
2018-Jan-19 10:31N 35°32' E 139°46'0 0.0
2018-Jan-19 10:01N 35°32' E 139°46'0 0.0
2018-Jan-19 09:30N 35°32' E 139°46'0 0.0
2018-Jan-19 09:00N 35°32' E 139°46'0 0.0
2018-Jan-19 08:30N 35°32' E 139°46'0 0.0
2018-Jan-19 08:00N 35°32' E 139°46'0 0.0
2018-Jan-19 07:30N 35°32' E 139°46'0 0.0
2018-Jan-19 07:00N 35°32' E 139°46'0 0.0
2018-Jan-19 06:30N 35°32' E 139°46'0 0.0
2018-Jan-19 06:00N 35°32' E 139°46'0 0.0
2018-Jan-19 05:30N 35°32' E 139°46'0 0.0
2018-Jan-19 04:59N 35°32' E 139°46'2 3.6
2018-Jan-19 04:30N 35°30' E 139°47'812.0
2018-Jan-19 03:51N 35°33' E 139°56'412.0
2018-Jan-19 03:30N 35°35' E 140°01'3 6.5
2018-Jan-19 03:00N 35°36' E 140°05'0 0.0
2018-Jan-19 02:30N 35°36' E 140°05'0 0.0
2018-Jan-19 02:00N 35°36' E 140°05'0 0.0
2018-Jan-19 01:30N 35°36' E 140°05'0 0.0
2018-Jan-19 01:00N 35°36' E 140°05'0 0.0
2018-Jan-19 00:30N 35°36' E 140°05'0 0.0
2018-Jan-19 00:01N 35°36' E 140°05'0 0.0
2018-Jan-18 23:30N 35°36' E 140°05'1 1.1
2018-Jan-18 23:01N 35°36' E 140°04'0 0.3
2018-Jan-18 22:30N 35°36' E 140°04'0 0.0
2018-Jan-18 22:01N 35°36' E 140°04'3 5.7
2018-Jan-18 21:31N 35°35' E 140°01'612.4
2018-Jan-18 21:00N 35°31' E 139°55'712.5
2018-Jan-18 20:29N 35°27' E 139°49'612.5
2018-Jan-18 20:00N 35°22' E 139°45'611.8
2018-Jan-18 19:30N 35°16' E 139°46'612.5
2018-Jan-18 19:00N 35°09' E 139°46'611.8
2018-Jan-18 18:30N 35°04' E 139°42'611.7
2018-Jan-18 18:00N 35°00' E 139°37'612.6
2018-Jan-18 17:30N 34°56' E 139°31'713.0
2018-Jan-18 16:59N 34°52' E 139°25'713.8
2018-Jan-18 16:29N 34°47' E 139°19'713.7
2018-Jan-18 15:58N 34°44' E 139°11'614.1
2018-Jan-18 15:30N 34°40' E 139°05'714.2
2018-Jan-18 15:00N 34°36' E 138°58'713.4
2018-Jan-18 14:31N 34°35' E 138°50'712.5
2018-Jan-18 13:57N 34°34' E 138°41'612.7
2018-Jan-18 13:30N 34°34' E 138°34'713.0
2018-Jan-18 12:58N 34°34' E 138°26'613.4
2018-Jan-18 12:30N 34°34' E 138°18'813.6
2018-Jan-18 11:57N 34°34' E 138°09'613.3
2018-Jan-18 11:28N 34°35' E 138°01'714.0
2018-Jan-18 10:57N 34°36' E 137°53'3113.6
2018-Jan-18 08:41N 34°34' E 137°15'313.2
2018-Jan-18 08:29N 34°34' E 137°12'1011.7
2018-Jan-18 07:36N 34°34' E 136°60'111.6
2018-Jan-18 07:28N 34°35' E 136°58'612.4
2018-Jan-18 07:00N 34°38' E 136°53'612.3
2018-Jan-18 06:30N 34°43' E 136°48'713.0
2018-Jan-18 06:00N 34°49' E 136°46'713.2
2018-Jan-18 05:30N 34°56' E 136°46'713.1
2018-Jan-18 05:00N 35°02' E 136°51'1 1.9
2018-Jan-18 04:30N 35°02' E 136°51'0 0.0
2018-Jan-18 04:00N 35°02' E 136°51'0 0.0
2018-Jan-18 03:29N 35°02' E 136°51'0 0.0
2018-Jan-18 03:00N 35°02' E 136°51'0 0.0
2018-Jan-18 02:30N 35°02' E 136°51'0 0.0
2018-Jan-18 02:00N 35°02' E 136°51'0 0.0
2018-Jan-18 01:30N 35°02' E 136°51'0 0.0
2018-Jan-18 01:00N 35°02' E 136°51'0 0.0
2018-Jan-18 00:00N 35°02' E 136°51'0 0.0
2018-Jan-17 23:57N 35°02' E 136°51'  
2018-Jan-12 14:57N 34°56' E 139°29'715.7
2018-Jan-12 14:30N 34°52' E 139°22'715.0
2018-Jan-12 14:00N 34°48' E 139°15'714.0
2018-Jan-12 13:29N 34°43' E 139°08'613.3
2018-Jan-12 13:00N 34°39' E 139°02'713.5
2018-Jan-12 12:30N 34°35' E 138°56'713.4
2018-Jan-12 11:57N 34°35' E 138°47'613.1
2018-Jan-12 11:30N 34°35' E 138°40'713.4
2018-Jan-12 10:57N 34°34' E 138°31'613.0
2018-Jan-12 10:29N 34°33' E 138°23'613.7
2018-Jan-12 10:00N 34°33' E 138°15'814.2
2018-Jan-12 09:26N 34°35' E 138°06'614.2
2018-Jan-12 08:59N 34°36' E 137°58'813.8
2018-Jan-12 08:24N 34°37' E 137°48'2813.0
2018-Jan-12 06:16N 34°34' E 137°15'312.9
2018-Jan-12 06:00N 34°33' E 137°11'1512.0
2018-Jan-12 04:43N 34°38' E 136°53'312.9
2018-Jan-12 04:29N 34°40' E 136°50'613.4
2018-Jan-12 04:00N 34°46' E 136°47'612.9
2018-Jan-12 03:30N 34°52' E 136°46'612.5
2018-Jan-12 03:00N 34°58' E 136°48'2 3.5
2018-Jan-12 02:30N 34°59' E 136°50'0 0.0
2018-Jan-12 02:00N 34°59' E 136°50'0 0.0
2018-Jan-12 01:30N 34°59' E 136°50'0 0.0
2018-Jan-12 00:59N 34°59' E 136°50'0 0.0
2018-Jan-12 00:30N 34°59' E 136°50'0 0.0
2018-Jan-12 00:00N 34°59' E 136°50'0 0.0
2018-Jan-11 23:30N 34°59' E 136°50'2 3.2
2018-Jan-11 23:00N 34°58' E 136°48'2 3.4
2018-Jan-11 22:30N 34°57' E 136°47'0 0.0
2018-Jan-11 22:00N 34°57' E 136°47'0 0.0
2018-Jan-11 21:30N 34°57' E 136°47'0 0.1
2018-Jan-11 21:00N 34°57' E 136°47'0 0.1
2018-Jan-11 20:30N 34°57' E 136°47'0 0.0
2018-Jan-11 20:00N 34°57' E 136°47'0 0.0
2018-Jan-11 19:30N 34°57' E 136°47'0 0.0
2018-Jan-11 19:00N 34°57' E 136°47'0 0.0
2018-Jan-11 18:30N 34°57' E 136°47'0 0.0
2018-Jan-11 18:00N 34°57' E 136°47'0 0.1
2018-Jan-11 17:30N 34°57' E 136°47'0 0.0
2018-Jan-11 17:00N 34°57' E 136°47'0 0.0
2018-Jan-11 16:30N 34°57' E 136°47'0 0.0
2018-Jan-11 16:00N 34°57' E 136°47'0 0.0
2018-Jan-11 15:30N 34°57' E 136°47'0 0.0
2018-Jan-11 15:00N 34°57' E 136°47'0 0.0
2018-Jan-11 14:30N 34°57' E 136°47'0 0.0
2018-Jan-11 14:00N 34°57' E 136°47'0 0.0
2018-Jan-11 13:30N 34°57' E 136°47'0 0.0
2018-Jan-11 13:00N 34°57' E 136°47'0 0.1
2018-Jan-11 12:30N 34°57' E 136°47'0 0.1
2018-Jan-11 12:00N 34°57' E 136°47'0 0.0
2018-Jan-11 11:30N 34°57' E 136°47'0 0.0
2018-Jan-11 11:00N 34°57' E 136°47'0 0.0
2018-Jan-11 10:29N 34°57' E 136°47'0 0.0
2018-Jan-11 10:00N 34°57' E 136°47'0 0.0
2018-Jan-11 09:30N 34°57' E 136°47'0 0.1
2018-Jan-11 09:00N 34°57' E 136°47'0 0.1
2018-Jan-11 08:30N 34°57' E 136°47'0 0.0
2018-Jan-11 08:00N 34°57' E 136°47'0 0.0
2018-Jan-11 07:30N 34°57' E 136°47'0 0.0
2018-Jan-11 07:00N 34°57' E 136°47'0 0.0
2018-Jan-11 06:29N 34°57' E 136°47'0 0.1
2018-Jan-11 06:00N 34°57' E 136°47'0 0.0
2018-Jan-11 05:29N 34°57' E 136°47'0 0.0
2018-Jan-11 05:00N 34°57' E 136°47'0 0.0
2018-Jan-11 04:30N 34°57' E 136°47'0 0.0
2018-Jan-11 04:00N 34°57' E 136°47'5 9.5
2018-Jan-11 03:30N 34°53' E 136°47'5 9.1
2018-Jan-11 03:00N 34°48' E 136°47'611.3
2018-Jan-11 02:30N 34°43' E 136°50'810.1
2018-Jan-11 01:41N 34°37' E 136°57'1 6.5
2018-Jan-11 01:28N 34°36' E 136°58'5 8.5
2018-Jan-11 00:55N 34°33' E 137°03'410.7
2018-Jan-11 00:30N 34°33' E 137°08'510.8
2018-Jan-11 00:00N 34°35' E 137°14'4410.3
2018-Jan-10 19:44N 34°34' E 138°08'3 9.2
2018-Jan-10 19:27N 34°34' E 138°11'4 9.6
2018-Jan-10 19:00N 34°34' E 138°16'510.2
2018-Jan-10 18:30N 34°34' E 138°23'510.0
2018-Jan-10 17:59N 34°34' E 138°29'6 9.8
2018-Jan-10 17:22N 34°35' E 138°36'4 9.4
2018-Jan-10 17:00N 34°35' E 138°40'5 9.5
2018-Jan-10 16:30N 34°35' E 138°46'4 8.4
2018-Jan-10 15:59N 34°35' E 138°51'4 8.9
2018-Jan-10 15:30N 34°36' E 138°56'610.6
2018-Jan-10 14:59N 34°40' E 139°01'811.1
2018-Jan-10 14:17N 34°47' E 139°06'311.5
2018-Jan-10 13:59N 34°49' E 139°08'611.4
2018-Jan-10 13:26N 34°54' E 139°13'511.2
2018-Jan-10 12:59N 34°56' E 139°18'510.9
2018-Jan-10 12:30N 34°59' E 139°24'611.4
2018-Jan-10 12:01N 35°02' E 139°30'511.0
2018-Jan-10 11:31N 35°04' E 139°36'611.3
2018-Jan-10 11:01N 35°07' E 139°42'611.0
2018-Jan-10 10:30N 35°12' E 139°46'511.0
2018-Jan-10 10:00N 35°17' E 139°45'611.8
2018-Jan-10 09:30N 35°23' E 139°42'611.5
2018-Jan-10 09:00N 35°27' E 139°47'611.6
2018-Jan-10 08:30N 35°30' E 139°53'611.4
2018-Jan-10 08:00N 35°33' E 139°59'510.8
2018-Jan-10 07:31N 35°36' E 140°05'1 1.3
2018-Jan-10 07:01N 35°36' E 140°05'0 0.0
2018-Jan-10 06:30N 35°36' E 140°05'0 0.0
2018-Jan-10 06:00N 35°36' E 140°05'0 0.0
2018-Jan-10 05:30N 35°36' E 140°05'0 0.0
2018-Jan-10 05:00N 35°36' E 140°05'0 0.0
2018-Jan-10 04:30N 35°36' E 140°05'0 0.1
2018-Jan-10 04:00N 35°36' E 140°05'0 0.0
2018-Jan-10 03:30N 35°36' E 140°05'0 0.0
2018-Jan-10 03:00N 35°36' E 140°05'0 0.0
2018-Jan-10 02:30N 35°36' E 140°05'0 0.5
2018-Jan-10 02:00N 35°36' E 140°05'5 9.8
2018-Jan-10 01:30N 35°33' E 140°00'713.1
2018-Jan-10 01:00N 35°31' E 139°52'2 3.6
2018-Jan-10 00:30N 35°31' E 139°50'0 0.0
2018-Jan-10 00:00N 35°31' E 139°50'0 0.0
2018-Jan-09 23:31N 35°31' E 139°50'0 0.0
2018-Jan-09 23:01N 35°31' E 139°50'0 0.0
2018-Jan-09 22:30N 35°31' E 139°50'0 0.0
2018-Jan-09 22:00N 35°31' E 139°50'0 0.0
2018-Jan-09 21:30N 35°31' E 139°50'0 0.0
2018-Jan-09 21:01N 35°31' E 139°50'0 0.0
2018-Jan-09 20:30N 35°31' E 139°50'0 0.0
2018-Jan-09 20:01N 35°31' E 139°50'0 0.0
2018-Jan-09 19:30N 35°31' E 139°50'0 0.0
2018-Jan-09 19:01N 35°31' E 139°50'0 0.0
2018-Jan-09 18:30N 35°31' E 139°50'0 0.0
2018-Jan-09 18:00N 35°31' E 139°50'0 0.0
2018-Jan-09 17:31N 35°31' E 139°50'0 0.0
2018-Jan-09 17:01N 35°31' E 139°50'0 0.0
2018-Jan-09 16:31N 35°31' E 139°50'0 0.0
2018-Jan-09 16:00N 35°31' E 139°50'0 0.0
2018-Jan-09 15:30N 35°31' E 139°50'0 0.0
2018-Jan-09 15:01N 35°31' E 139°50'  
Track history (hours):
 
Tides and Currents Weather Stations Pressure Air Temp Water Temp Dewpoint Dewpoint Depression Visibility Wind Speed Wind Dir Waves Ship Positions

Umeoh Maru

Last reported at 2018-Jan-19 15:01 UTC. Time now 2018-Jan-19 15:23 UTC.
Position N 35°34' E 140°04'.

Length 73 m; draft 4.6 m.

Type: Tanker. MMSI: 431005826.

Date/timePositionNaut miles runAvg speedWind from/ knotsBaromVisibWave heightAir tempDewpointWater temp
2018-Jan-19 15:01N 35°34' E 140°04'0 0.0
2018-Jan-19 14:30N 35°34' E 140°04'0 0.0
2018-Jan-19 14:01N 35°34' E 140°04'0 0.0
2018-Jan-19 13:31N 35°34' E 140°04'0 0.0
2018-Jan-19 13:00N 35°34' E 140°04'0 0.0
2018-Jan-19 12:30N 35°34' E 140°04'1 2.3
2018-Jan-19 12:01N 35°34' E 140°03'612.2
2018-Jan-19 11:31N 35°31' E 139°56'612.0
2018-Jan-19 11:00N 35°30' E 139°49'3 5.6
2018-Jan-19 10:31N 35°32' E 139°46'0 0.0
2018-Jan-19 10:01N 35°32' E 139°46'0 0.0
2018-Jan-19 09:30N 35°32' E 139°46'0 0.0
2018-Jan-19 09:00N 35°32' E 139°46'0 0.0
2018-Jan-19 08:30N 35°32' E 139°46'0 0.0
2018-Jan-19 08:00N 35°32' E 139°46'0 0.0
2018-Jan-19 07:30N 35°32' E 139°46'0 0.0
2018-Jan-19 07:00N 35°32' E 139°46'0 0.0
2018-Jan-19 06:30N 35°32' E 139°46'0 0.0
2018-Jan-19 06:00N 35°32' E 139°46'0 0.0
2018-Jan-19 05:30N 35°32' E 139°46'0 0.0
2018-Jan-19 04:59N 35°32' E 139°46'2 3.6
2018-Jan-19 04:30N 35°30' E 139°47'812.0
2018-Jan-19 03:51N 35°33' E 139°56'412.0
2018-Jan-19 03:30N 35°35' E 140°01'3 6.5
2018-Jan-19 03:00N 35°36' E 140°05'0 0.0
2018-Jan-19 02:30N 35°36' E 140°05'0 0.0
2018-Jan-19 02:00N 35°36' E 140°05'0 0.0
2018-Jan-19 01:30N 35°36' E 140°05'0 0.0
2018-Jan-19 01:00N 35°36' E 140°05'0 0.0
2018-Jan-19 00:30N 35°36' E 140°05'0 0.0
2018-Jan-19 00:01N 35°36' E 140°05'0 0.0
2018-Jan-18 23:30N 35°36' E 140°05'1 1.1
2018-Jan-18 23:01N 35°36' E 140°04'0 0.3
2018-Jan-18 22:30N 35°36' E 140°04'0 0.0
2018-Jan-18 22:01N 35°36' E 140°04'3 5.7
2018-Jan-18 21:31N 35°35' E 140°01'612.4
2018-Jan-18 21:00N 35°31' E 139°55'712.5
2018-Jan-18 20:29N 35°27' E 139°49'612.5
2018-Jan-18 20:00N 35°22' E 139°45'611.8
2018-Jan-18 19:30N 35°16' E 139°46'612.5
2018-Jan-18 19:00N 35°09' E 139°46'611.8
2018-Jan-18 18:30N 35°04' E 139°42'611.7
2018-Jan-18 18:00N 35°00' E 139°37'612.6
2018-Jan-18 17:30N 34°56' E 139°31'713.0
2018-Jan-18 16:59N 34°52' E 139°25'713.8
2018-Jan-18 16:29N 34°47' E 139°19'713.7
2018-Jan-18 15:58N 34°44' E 139°11'614.1
2018-Jan-18 15:30N 34°40' E 139°05'714.2
2018-Jan-18 15:00N 34°36' E 138°58'713.4
2018-Jan-18 14:31N 34°35' E 138°50'712.5
2018-Jan-18 13:57N 34°34' E 138°41'612.7
2018-Jan-18 13:30N 34°34' E 138°34'713.0
2018-Jan-18 12:58N 34°34' E 138°26'613.4
2018-Jan-18 12:30N 34°34' E 138°18'813.6
2018-Jan-18 11:57N 34°34' E 138°09'613.3
2018-Jan-18 11:28N 34°35' E 138°01'714.0
2018-Jan-18 10:57N 34°36' E 137°53'3113.6
2018-Jan-18 08:41N 34°34' E 137°15'313.2
2018-Jan-18 08:29N 34°34' E 137°12'1011.7
2018-Jan-18 07:36N 34°34' E 136°60'111.6
2018-Jan-18 07:28N 34°35' E 136°58'612.4
2018-Jan-18 07:00N 34°38' E 136°53'612.3
2018-Jan-18 06:30N 34°43' E 136°48'713.0
2018-Jan-18 06:00N 34°49' E 136°46'713.2
2018-Jan-18 05:30N 34°56' E 136°46'713.1
2018-Jan-18 05:00N 35°02' E 136°51'1 1.9
2018-Jan-18 04:30N 35°02' E 136°51'0 0.0
2018-Jan-18 04:00N 35°02' E 136°51'0 0.0
2018-Jan-18 03:29N 35°02' E 136°51'0 0.0
2018-Jan-18 03:00N 35°02' E 136°51'0 0.0
2018-Jan-18 02:30N 35°02' E 136°51'0 0.0
2018-Jan-18 02:00N 35°02' E 136°51'0 0.0
2018-Jan-18 01:30N 35°02' E 136°51'0 0.0
2018-Jan-18 01:00N 35°02' E 136°51'0 0.0
2018-Jan-18 00:00N 35°02' E 136°51'0 0.0
2018-Jan-17 23:57N 35°02' E 136°51'  
2018-Jan-12 14:57N 34°56' E 139°29'715.7
2018-Jan-12 14:30N 34°52' E 139°22'715.0
2018-Jan-12 14:00N 34°48' E 139°15'714.0
2018-Jan-12 13:29N 34°43' E 139°08'613.3
2018-Jan-12 13:00N 34°39' E 139°02'713.5
2018-Jan-12 12:30N 34°35' E 138°56'713.4
2018-Jan-12 11:57N 34°35' E 138°47'613.1
2018-Jan-12 11:30N 34°35' E 138°40'713.4
2018-Jan-12 10:57N 34°34' E 138°31'613.0
2018-Jan-12 10:29N 34°33' E 138°23'613.7
2018-Jan-12 10:00N 34°33' E 138°15'814.2
2018-Jan-12 09:26N 34°35' E 138°06'614.2
2018-Jan-12 08:59N 34°36' E 137°58'813.8
2018-Jan-12 08:24N 34°37' E 137°48'2813.0
2018-Jan-12 06:16N 34°34' E 137°15'312.9
2018-Jan-12 06:00N 34°33' E 137°11'1512.0
2018-Jan-12 04:43N 34°38' E 136°53'312.9
2018-Jan-12 04:29N 34°40' E 136°50'613.4
2018-Jan-12 04:00N 34°46' E 136°47'612.9
2018-Jan-12 03:30N 34°52' E 136°46'612.5
2018-Jan-12 03:00N 34°58' E 136°48'2 3.5
2018-Jan-12 02:30N 34°59' E 136°50'0 0.0
2018-Jan-12 02:00N 34°59' E 136°50'0 0.0
2018-Jan-12 01:30N 34°59' E 136°50'0 0.0
2018-Jan-12 00:59N 34°59' E 136°50'0 0.0
2018-Jan-12 00:30N 34°59' E 136°50'0 0.0
2018-Jan-12 00:00N 34°59' E 136°50'0 0.0
2018-Jan-11 23:30N 34°59' E 136°50'2 3.2
2018-Jan-11 23:00N 34°58' E 136°48'2 3.4
2018-Jan-11 22:30N 34°57' E 136°47'0 0.0
2018-Jan-11 22:00N 34°57' E 136°47'0 0.0
2018-Jan-11 21:30N 34°57' E 136°47'0 0.1
2018-Jan-11 21:00N 34°57' E 136°47'0 0.1
2018-Jan-11 20:30N 34°57' E 136°47'0 0.0
2018-Jan-11 20:00N 34°57' E 136°47'0 0.0
2018-Jan-11 19:30N 34°57' E 136°47'0 0.0
2018-Jan-11 19:00N 34°57' E 136°47'0 0.0
2018-Jan-11 18:30N 34°57' E 136°47'0 0.0
2018-Jan-11 18:00N 34°57' E 136°47'0 0.1
2018-Jan-11 17:30N 34°57' E 136°47'0 0.0
2018-Jan-11 17:00N 34°57' E 136°47'0 0.0
2018-Jan-11 16:30N 34°57' E 136°47'0 0.0
2018-Jan-11 16:00N 34°57' E 136°47'0 0.0
2018-Jan-11 15:30N 34°57' E 136°47'0 0.0
2018-Jan-11 15:00N 34°57' E 136°47'0 0.0
2018-Jan-11 14:30N 34°57' E 136°47'0 0.0
2018-Jan-11 14:00N 34°57' E 136°47'0 0.0
2018-Jan-11 13:30N 34°57' E 136°47'0 0.0
2018-Jan-11 13:00N 34°57' E 136°47'0 0.1
2018-Jan-11 12:30N 34°57' E 136°47'0 0.1
2018-Jan-11 12:00N 34°57' E 136°47'0 0.0
2018-Jan-11 11:30N 34°57' E 136°47'0 0.0
2018-Jan-11 11:00N 34°57' E 136°47'0 0.0
2018-Jan-11 10:29N 34°57' E 136°47'0 0.0
2018-Jan-11 10:00N 34°57' E 136°47'0 0.0
2018-Jan-11 09:30N 34°57' E 136°47'0 0.1
2018-Jan-11 09:00N 34°57' E 136°47'0 0.1
2018-Jan-11 08:30N 34°57' E 136°47'0 0.0
2018-Jan-11 08:00N 34°57' E 136°47'0 0.0
2018-Jan-11 07:30N 34°57' E 136°47'0 0.0
2018-Jan-11 07:00N 34°57' E 136°47'0 0.0
2018-Jan-11 06:29N 34°57' E 136°47'0 0.1
2018-Jan-11 06:00N 34°57' E 136°47'0 0.0
2018-Jan-11 05:29N 34°57' E 136°47'0 0.0
2018-Jan-11 05:00N 34°57' E 136°47'0 0.0
2018-Jan-11 04:30N 34°57' E 136°47'0 0.0
2018-Jan-11 04:00N 34°57' E 136°47'5 9.5
2018-Jan-11 03:30N 34°53' E 136°47'5 9.1
2018-Jan-11 03:00N 34°48' E 136°47'611.3
2018-Jan-11 02:30N 34°43' E 136°50'810.1
2018-Jan-11 01:41N 34°37' E 136°57'1 6.5
2018-Jan-11 01:28N 34°36' E 136°58'5 8.5
2018-Jan-11 00:55N 34°33' E 137°03'410.7
2018-Jan-11 00:30N 34°33' E 137°08'510.8
2018-Jan-11 00:00N 34°35' E 137°14'4410.3
2018-Jan-10 19:44N 34°34' E 138°08'3 9.2
2018-Jan-10 19:27N 34°34' E 138°11'4 9.6
2018-Jan-10 19:00N 34°34' E 138°16'510.2
2018-Jan-10 18:30N 34°34' E 138°23'510.0
2018-Jan-10 17:59N 34°34' E 138°29'6 9.8
2018-Jan-10 17:22N 34°35' E 138°36'4 9.4
2018-Jan-10 17:00N 34°35' E 138°40'5 9.5
2018-Jan-10 16:30N 34°35' E 138°46'4 8.4
2018-Jan-10 15:59N 34°35' E 138°51'4 8.9
2018-Jan-10 15:30N 34°36' E 138°56'610.6
2018-Jan-10 14:59N 34°40' E 139°01'811.1
2018-Jan-10 14:17N 34°47' E 139°06'311.5
2018-Jan-10 13:59N 34°49' E 139°08'611.4
2018-Jan-10 13:26N 34°54' E 139°13'511.2
2018-Jan-10 12:59N 34°56' E 139°18'510.9
2018-Jan-10 12:30N 34°59' E 139°24'611.4
2018-Jan-10 12:01N 35°02' E 139°30'511.0
2018-Jan-10 11:31N 35°04' E 139°36'611.3
2018-Jan-10 11:01N 35°07' E 139°42'611.0
2018-Jan-10 10:30N 35°12' E 139°46'511.0
2018-Jan-10 10:00N 35°17' E 139°45'611.8
2018-Jan-10 09:30N 35°23' E 139°42'611.5
2018-Jan-10 09:00N 35°27' E 139°47'611.6
2018-Jan-10 08:30N 35°30' E 139°53'611.4
2018-Jan-10 08:00N 35°33' E 139°59'510.8
2018-Jan-10 07:31N 35°36' E 140°05'1 1.3
2018-Jan-10 07:01N 35°36' E 140°05'0 0.0
2018-Jan-10 06:30N 35°36' E 140°05'0 0.0
2018-Jan-10 06:00N 35°36' E 140°05'0 0.0
2018-Jan-10 05:30N 35°36' E 140°05'0 0.0
2018-Jan-10 05:00N 35°36' E 140°05'0 0.0
2018-Jan-10 04:30N 35°36' E 140°05'0 0.1
2018-Jan-10 04:00N 35°36' E 140°05'0 0.0
2018-Jan-10 03:30N 35°36' E 140°05'0 0.0
2018-Jan-10 03:00N 35°36' E 140°05'0 0.0
2018-Jan-10 02:30N 35°36' E 140°05'0 0.5
2018-Jan-10 02:00N 35°36' E 140°05'5 9.8
2018-Jan-10 01:30N 35°33' E 140°00'713.1
2018-Jan-10 01:00N 35°31' E 139°52'2 3.6
2018-Jan-10 00:30N 35°31' E 139°50'0 0.0
2018-Jan-10 00:00N 35°31' E 139°50'0 0.0
2018-Jan-09 23:31N 35°31' E 139°50'0 0.0
2018-Jan-09 23:01N 35°31' E 139°50'0 0.0
2018-Jan-09 22:30N 35°31' E 139°50'0 0.0
2018-Jan-09 22:00N 35°31' E 139°50'0 0.0
2018-Jan-09 21:30N 35°31' E 139°50'0 0.0
2018-Jan-09 21:01N 35°31' E 139°50'0 0.0
2018-Jan-09 20:30N 35°31' E 139°50'0 0.0
2018-Jan-09 20:01N 35°31' E 139°50'0 0.0
2018-Jan-09 19:30N 35°31' E 139°50'0 0.0
2018-Jan-09 19:01N 35°31' E 139°50'0 0.0
2018-Jan-09 18:30N 35°31' E 139°50'0 0.0
2018-Jan-09 18:00N 35°31' E 139°50'0 0.0
2018-Jan-09 17:31N 35°31' E 139°50'0 0.0
2018-Jan-09 17:01N 35°31' E 139°50'0 0.0
2018-Jan-09 16:31N 35°31' E 139°50'0 0.0
2018-Jan-09 16:00N 35°31' E 139°50'0 0.0
2018-Jan-09 15:30N 35°31' E 139°50'0 0.0
2018-Jan-09 15:01N 35°31' E 139°50'  

Dump ship's entire track history